sensor_id;sensor_type;location;lat;lon;timestamp;temperature;humidity
2603;DHT22;1311;47.966;7.958;2023-04-02T00:01:36;8.60;99.90
2603;DHT22;1311;47.966;7.958;2023-04-02T00:04:12;8.60;99.90
2603;DHT22;1311;47.966;7.958;2023-04-02T00:06:41;8.60;99.90
2603;DHT22;1311;47.966;7.958;2023-04-02T00:09:34;8.60;99.90
2603;DHT22;1311;47.966;7.958;2023-04-02T00:12:16;8.60;99.90
2603;DHT22;1311;47.966;7.958;2023-04-02T00:14:46;8.60;99.90
2603;DHT22;1311;47.966;7.958;2023-04-02T00:17:13;8.60;99.90
2603;DHT22;1311;47.966;7.958;2023-04-02T00:19:45;8.60;99.90
2603;DHT22;1311;47.966;7.958;2023-04-02T00:22:17;8.60;99.90
2603;DHT22;1311;47.966;7.958;2023-04-02T00:24:44;8.60;99.90
2603;DHT22;1311;47.966;7.958;2023-04-02T00:27:13;8.60;99.90
2603;DHT22;1311;47.966;7.958;2023-04-02T00:29:51;8.60;99.90
2603;DHT22;1311;47.966;7.958;2023-04-02T00:32:22;8.60;99.90
2603;DHT22;1311;47.966;7.958;2023-04-02T00:34:50;8.60;99.90
2603;DHT22;1311;47.966;7.958;2023-04-02T00:37:20;8.50;99.90
2603;DHT22;1311;47.966;7.958;2023-04-02T00:39:50;8.50;99.90
2603;DHT22;1311;47.966;7.958;2023-04-02T00:42:19;8.50;99.90
2603;DHT22;1311;47.966;7.958;2023-04-02T00:44:48;8.50;99.90
2603;DHT22;1311;47.966;7.958;2023-04-02T00:47:19;8.50;99.90
2603;DHT22;1311;47.966;7.958;2023-04-02T00:49:47;8.50;99.90
2603;DHT22;1311;47.966;7.958;2023-04-02T00:52:19;8.50;99.90
2603;DHT22;1311;47.966;7.958;2023-04-02T00:54:50;8.50;99.90
2603;DHT22;1311;47.966;7.958;2023-04-02T00:57:21;8.50;99.90
2603;DHT22;1311;47.966;7.958;2023-04-02T00:59:55;8.50;99.90
2603;DHT22;1311;47.966;7.958;2023-04-02T01:02:28;8.60;99.90
2603;DHT22;1311;47.966;7.958;2023-04-02T01:04:57;8.50;99.90
2603;DHT22;1311;47.966;7.958;2023-04-02T01:07:46;8.60;99.90
2603;DHT22;1311;47.966;7.958;2023-04-02T01:10:31;8.50;99.90
2603;DHT22;1311;47.966;7.958;2023-04-02T01:13:06;8.50;99.90
2603;DHT22;1311;47.966;7.958;2023-04-02T01:15:37;8.50;99.90
2603;DHT22;1311;47.966;7.958;2023-04-02T01:18:22;8.50;99.90
2603;DHT22;1311;47.966;7.958;2023-04-02T01:21:15;8.50;99.90
2603;DHT22;1311;47.966;7.958;2023-04-02T01:23:54;8.50;99.90
2603;DHT22;1311;47.966;7.958;2023-04-02T01:26:30;8.50;99.90
2603;DHT22;1311;47.966;7.958;2023-04-02T01:29:05;8.50;99.90
2603;DHT22;1311;47.966;7.958;2023-04-02T01:31:35;8.50;99.90
2603;DHT22;1311;47.966;7.958;2023-04-02T01:34:03;8.50;99.90
2603;DHT22;1311;47.966;7.958;2023-04-02T01:36:38;8.50;99.90
2603;DHT22;1311;47.966;7.958;2023-04-02T01:39:12;8.40;99.90
2603;DHT22;1311;47.966;7.958;2023-04-02T01:41:45;8.40;99.90
2603;DHT22;1311;47.966;7.958;2023-04-02T01:44:19;8.40;99.90
2603;DHT22;1311;47.966;7.958;2023-04-02T01:46:48;8.40;99.90
2603;DHT22;1311;47.966;7.958;2023-04-02T01:49:17;8.30;99.90
2603;DHT22;1311;47.966;7.958;2023-04-02T01:51:50;8.30;99.90
2603;DHT22;1311;47.966;7.958;2023-04-02T01:54:19;8.30;99.90
2603;DHT22;1311;47.966;7.958;2023-04-02T01:56:47;8.30;99.90
2603;DHT22;1311;47.966;7.958;2023-04-02T01:59:17;8.20;99.90
2603;DHT22;1311;47.966;7.958;2023-04-02T02:01:50;8.20;99.90
2603;DHT22;1311;47.966;7.958;2023-04-02T02:04:18;8.20;99.90
2603;DHT22;1311;47.966;7.958;2023-04-02T02:06:46;8.20;99.90
2603;DHT22;1311;47.966;7.958;2023-04-02T02:09:17;8.30;99.90
2603;DHT22;1311;47.966;7.958;2023-04-02T02:11:47;8.30;99.90
2603;DHT22;1311;47.966;7.958;2023-04-02T02:14:18;8.30;99.90
2603;DHT22;1311;47.966;7.958;2023-04-02T02:16:47;8.30;99.90
2603;DHT22;1311;47.966;7.958;2023-04-02T02:19:24;8.30;99.90
2603;DHT22;1311;47.966;7.958;2023-04-02T02:21:53;8.30;99.90
2603;DHT22;1311;47.966;7.958;2023-04-02T02:24:24;8.30;99.90
2603;DHT22;1311;47.966;7.958;2023-04-02T02:26:59;8.30;99.90
2603;DHT22;1311;47.966;7.958;2023-04-02T02:29:34;8.30;99.90
2603;DHT22;1311;47.966;7.958;2023-04-02T02:32:02;8.30;99.90
2603;DHT22;1311;47.966;7.958;2023-04-02T02:34:35;8.30;99.90
2603;DHT22;1311;47.966;7.958;2023-04-02T02:37:05;8.30;99.90
2603;DHT22;1311;47.966;7.958;2023-04-02T02:39:37;8.30;99.90
2603;DHT22;1311;47.966;7.958;2023-04-02T02:42:10;8.30;99.90
2603;DHT22;1311;47.966;7.958;2023-04-02T02:44:43;8.30;99.90
2603;DHT22;1311;47.966;7.958;2023-04-02T02:47:14;8.20;99.90
2603;DHT22;1311;47.966;7.958;2023-04-02T02:49:43;8.20;99.90
2603;DHT22;1311;47.966;7.958;2023-04-02T02:52:14;8.30;99.90
2603;DHT22;1311;47.966;7.958;2023-04-02T02:54:44;8.20;99.90
2603;DHT22;1311;47.966;7.958;2023-04-02T02:57:14;8.20;99.90
2603;DHT22;1311;47.966;7.958;2023-04-02T02:59:45;8.20;99.90
2603;DHT22;1311;47.966;7.958;2023-04-02T03:02:14;8.20;99.90
2603;DHT22;1311;47.966;7.958;2023-04-02T03:04:45;8.30;99.90
2603;DHT22;1311;47.966;7.958;2023-04-02T03:07:13;8.20;99.90
2603;DHT22;1311;47.966;7.958;2023-04-02T03:09:47;8.20;99.90
2603;DHT22;1311;47.966;7.958;2023-04-02T03:12:34;8.20;99.90
2603;DHT22;1311;47.966;7.958;2023-04-02T03:15:10;8.20;99.90
2603;DHT22;1311;47.966;7.958;2023-04-02T03:17:42;8.20;99.90
2603;DHT22;1311;47.966;7.958;2023-04-02T03:20:12;8.10;99.90
2603;DHT22;1311;47.966;7.958;2023-04-02T03:22:44;8.10;99.90
2603;DHT22;1311;47.966;7.958;2023-04-02T03:25:23;8.10;99.90
2603;DHT22;1311;47.966;7.958;2023-04-02T03:27:55;8.10;99.90
2603;DHT22;1311;47.966;7.958;2023-04-02T03:30:33;8.00;99.90
2603;DHT22;1311;47.966;7.958;2023-04-02T03:33:05;7.90;99.90
2603;DHT22;1311;47.966;7.958;2023-04-02T03:35:37;8.00;99.90
2603;DHT22;1311;47.966;7.958;2023-04-02T03:38:12;7.90;99.90
2603;DHT22;1311;47.966;7.958;2023-04-02T03:40:42;7.90;99.90
2603;DHT22;1311;47.966;7.958;2023-04-02T03:43:14;7.80;99.90
2603;DHT22;1311;47.966;7.958;2023-04-02T03:45:48;7.80;99.90
2603;DHT22;1311;47.966;7.958;2023-04-02T03:48:18;7.90;99.90
2603;DHT22;1311;47.966;7.958;2023-04-02T03:50:49;7.90;99.90
2603;DHT22;1311;47.966;7.958;2023-04-02T03:53:21;7.90;99.90
2603;DHT22;1311;47.966;7.958;2023-04-02T03:55:48;7.90;99.90
2603;DHT22;1311;47.966;7.958;2023-04-02T03:58:19;7.90;99.90
2603;DHT22;1311;47.966;7.958;2023-04-02T04:00:52;7.90;99.90
2603;DHT22;1311;47.966;7.958;2023-04-02T04:03:24;7.90;99.90
2603;DHT22;1311;47.966;7.958;2023-04-02T04:05:55;7.80;99.90
2603;DHT22;1311;47.966;7.958;2023-04-02T04:08:26;7.80;99.90
2603;DHT22;1311;47.966;7.958;2023-04-02T04:11:01;7.80;99.90
2603;DHT22;1311;47.966;7.958;2023-04-02T04:13:33;7.80;99.90
2603;DHT22;1311;47.966;7.958;2023-04-02T04:16:05;7.70;99.90
2603;DHT22;1311;47.966;7.958;2023-04-02T04:18:39;7.70;99.90
2603;DHT22;1311;47.966;7.958;2023-04-02T04:21:14;7.70;99.90
2603;DHT22;1311;47.966;7.958;2023-04-02T04:23:46;7.60;99.90
2603;DHT22;1311;47.966;7.958;2023-04-02T04:26:20;7.60;99.90
2603;DHT22;1311;47.966;7.958;2023-04-02T04:28:55;7.60;99.90
2603;DHT22;1311;47.966;7.958;2023-04-02T04:31:31;7.60;99.90
2603;DHT22;1311;47.966;7.958;2023-04-02T04:34:07;7.60;99.90
2603;DHT22;1311;47.966;7.958;2023-04-02T04:36:41;7.60;99.90
2603;DHT22;1311;47.966;7.958;2023-04-02T04:39:15;7.60;99.90
2603;DHT22;1311;47.966;7.958;2023-04-02T04:41:46;7.60;99.90
2603;DHT22;1311;47.966;7.958;2023-04-02T04:44:16;7.50;99.90
2603;DHT22;1311;47.966;7.958;2023-04-02T04:46:48;7.60;99.90
2603;DHT22;1311;47.966;7.958;2023-04-02T04:49:19;7.60;99.90
2603;DHT22;1311;47.966;7.958;2023-04-02T04:51:50;7.50;99.90
2603;DHT22;1311;47.966;7.958;2023-04-02T04:54:18;7.50;99.90
2603;DHT22;1311;47.966;7.958;2023-04-02T04:56:47;7.40;99.90
2603;DHT22;1311;47.966;7.958;2023-04-02T04:59:18;7.40;99.90
2603;DHT22;1311;47.966;7.958;2023-04-02T05:01:52;7.40;99.90
2603;DHT22;1311;47.966;7.958;2023-04-02T05:04:24;7.40;99.90
2603;DHT22;1311;47.966;7.958;2023-04-02T05:06:55;7.50;99.90
2603;DHT22;1311;47.966;7.958;2023-04-02T05:09:29;7.50;99.90
2603;DHT22;1311;47.966;7.958;2023-04-02T05:12:04;7.50;99.90
2603;DHT22;1311;47.966;7.958;2023-04-02T05:14:36;7.60;99.90
2603;DHT22;1311;47.966;7.958;2023-04-02T05:17:08;7.50;99.90
2603;DHT22;1311;47.966;7.958;2023-04-02T05:19:40;7.50;99.90
2603;DHT22;1311;47.966;7.958;2023-04-02T05:22:15;7.40;99.90
2603;DHT22;1311;47.966;7.958;2023-04-02T05:25:01;7.40;99.90
2603;DHT22;1311;47.966;7.958;2023-04-02T05:27:38;7.50;99.90
2603;DHT22;1311;47.966;7.958;2023-04-02T05:30:12;7.40;99.90
2603;DHT22;1311;47.966;7.958;2023-04-02T05:32:45;7.40;99.90
2603;DHT22;1311;47.966;7.958;2023-04-02T05:35:17;7.50;99.90
2603;DHT22;1311;47.966;7.958;2023-04-02T05:37:45;7.30;99.90
2603;DHT22;1311;47.966;7.958;2023-04-02T05:40:17;7.40;99.90
2603;DHT22;1311;47.966;7.958;2023-04-02T05:42:48;7.30;99.90
2603;DHT22;1311;47.966;7.958;2023-04-02T05:45:22;7.40;99.90
2603;DHT22;1311;47.966;7.958;2023-04-02T05:47:54;7.50;99.90
2603;DHT22;1311;47.966;7.958;2023-04-02T05:50:27;7.60;99.90
2603;DHT22;1311;47.966;7.958;2023-04-02T05:53:00;7.60;99.90
2603;DHT22;1311;47.966;7.958;2023-04-02T05:55:40;7.60;99.90
2603;DHT22;1311;47.966;7.958;2023-04-02T05:58:15;7.60;99.90
2603;DHT22;1311;47.966;7.958;2023-04-02T06:01:00;7.60;99.90
2603;DHT22;1311;47.966;7.958;2023-04-02T06:03:36;7.60;99.90
2603;DHT22;1311;47.966;7.958;2023-04-02T06:06:10;7.60;99.90
2603;DHT22;1311;47.966;7.958;2023-04-02T06:08:41;7.70;99.90
2603;DHT22;1311;47.966;7.958;2023-04-02T06:11:12;7.70;99.90
2603;DHT22;1311;47.966;7.958;2023-04-02T06:13:42;7.80;99.90
2603;DHT22;1311;47.966;7.958;2023-04-02T06:16:12;7.80;99.90
2603;DHT22;1311;47.966;7.958;2023-04-02T06:18:42;7.80;99.90
2603;DHT22;1311;47.966;7.958;2023-04-02T06:21:12;7.70;99.90
2603;DHT22;1311;47.966;7.958;2023-04-02T06:23:44;7.80;99.90
2603;DHT22;1311;47.966;7.958;2023-04-02T06:26:18;8.00;99.90
2603;DHT22;1311;47.966;7.958;2023-04-02T06:28:49;7.90;99.90
2603;DHT22;1311;47.966;7.958;2023-04-02T06:31:24;7.90;99.90
2603;DHT22;1311;47.966;7.958;2023-04-02T06:33:52;8.00;99.90
2603;DHT22;1311;47.966;7.958;2023-04-02T06:36:21;8.00;99.90
2603;DHT22;1311;47.966;7.958;2023-04-02T06:38:50;8.00;99.90
2603;DHT22;1311;47.966;7.958;2023-04-02T06:41:19;8.10;99.90
2603;DHT22;1311;47.966;7.958;2023-04-02T06:43:50;8.00;99.90
2603;DHT22;1311;47.966;7.958;2023-04-02T06:46:21;8.00;99.90
2603;DHT22;1311;47.966;7.958;2023-04-02T06:48:53;8.10;99.90
2603;DHT22;1311;47.966;7.958;2023-04-02T06:51:24;8.30;99.90
2603;DHT22;1311;47.966;7.958;2023-04-02T06:53:51;8.40;99.90
2603;DHT22;1311;47.966;7.958;2023-04-02T06:56:28;8.60;99.90
2603;DHT22;1311;47.966;7.958;2023-04-02T06:58:59;8.70;99.90
2603;DHT22;1311;47.966;7.958;2023-04-02T07:01:32;8.60;99.90
2603;DHT22;1311;47.966;7.958;2023-04-02T07:04:02;8.60;99.90
2603;DHT22;1311;47.966;7.958;2023-04-02T07:06:29;8.70;99.90
2603;DHT22;1311;47.966;7.958;2023-04-02T07:08:56;8.70;99.90
2603;DHT22;1311;47.966;7.958;2023-04-02T07:11:22;8.70;99.90
2603;DHT22;1311;47.966;7.958;2023-04-02T07:13:49;8.90;99.90
2603;DHT22;1311;47.966;7.958;2023-04-02T07:16:18;9.00;99.90
2603;DHT22;1311;47.966;7.958;2023-04-02T07:18:46;9.10;99.90
2603;DHT22;1311;47.966;7.958;2023-04-02T07:21:14;9.30;99.90
2603;DHT22;1311;47.966;7.958;2023-04-02T07:23:41;9.30;99.90
2603;DHT22;1311;47.966;7.958;2023-04-02T07:26:12;9.20;99.90
2603;DHT22;1311;47.966;7.958;2023-04-02T07:28:40;9.30;99.90
2603;DHT22;1311;47.966;7.958;2023-04-02T07:31:14;9.40;99.90
2603;DHT22;1311;47.966;7.958;2023-04-02T07:33:41;9.50;99.90
2603;DHT22;1311;47.966;7.958;2023-04-02T07:36:12;9.50;99.90
2603;DHT22;1311;47.966;7.958;2023-04-02T07:38:41;9.60;99.90
2603;DHT22;1311;47.966;7.958;2023-04-02T07:41:07;9.80;99.90
2603;DHT22;1311;47.966;7.958;2023-04-02T07:43:34;9.70;99.90
2603;DHT22;1311;47.966;7.958;2023-04-02T07:46:01;9.50;99.90
2603;DHT22;1311;47.966;7.958;2023-04-02T07:48:28;9.60;99.90
2603;DHT22;1311;47.966;7.958;2023-04-02T07:50:55;9.60;99.90
2603;DHT22;1311;47.966;7.958;2023-04-02T07:53:27;9.60;99.90
2603;DHT22;1311;47.966;7.958;2023-04-02T07:55:56;9.70;99.90
2603;DHT22;1311;47.966;7.958;2023-04-02T07:58:23;9.80;99.90
2603;DHT22;1311;47.966;7.958;2023-04-02T08:00:50;9.90;99.90
2603;DHT22;1311;47.966;7.958;2023-04-02T08:03:17;9.90;99.90
2603;DHT22;1311;47.966;7.958;2023-04-02T08:05:49;9.90;99.90
2603;DHT22;1311;47.966;7.958;2023-04-02T08:08:16;10.10;99.90
2603;DHT22;1311;47.966;7.958;2023-04-02T08:10:43;10.10;99.90
2603;DHT22;1311;47.966;7.958;2023-04-02T08:13:11;10.20;99.90
2603;DHT22;1311;47.966;7.958;2023-04-02T08:15:38;10.20;99.90
2603;DHT22;1311;47.966;7.958;2023-04-02T08:18:05;10.20;99.90
2603;DHT22;1311;47.966;7.958;2023-04-02T08:20:31;10.30;99.90
2603;DHT22;1311;47.966;7.958;2023-04-02T08:22:58;10.40;99.90
2603;DHT22;1311;47.966;7.958;2023-04-02T08:25:26;10.60;99.90
2603;DHT22;1311;47.966;7.958;2023-04-02T08:27:52;10.60;99.90
2603;DHT22;1311;47.966;7.958;2023-04-02T08:30:21;10.80;99.90
2603;DHT22;1311;47.966;7.958;2023-04-02T08:32:47;11.00;99.90
2603;DHT22;1311;47.966;7.958;2023-04-02T08:35:15;11.10;99.90
2603;DHT22;1311;47.966;7.958;2023-04-02T08:37:42;11.30;99.90
2603;DHT22;1311;47.966;7.958;2023-04-02T08:40:19;11.40;99.90
2603;DHT22;1311;47.966;7.958;2023-04-02T08:42:57;11.60;99.90
2603;DHT22;1311;47.966;7.958;2023-04-02T08:45:38;11.90;99.90
2603;DHT22;1311;47.966;7.958;2023-04-02T08:48:09;12.10;99.90
2603;DHT22;1311;47.966;7.958;2023-04-02T08:50:38;12.30;99.90
2603;DHT22;1311;47.966;7.958;2023-04-02T08:53:11;12.50;99.90
2603;DHT22;1311;47.966;7.958;2023-04-02T08:55:41;12.30;99.90
2603;DHT22;1311;47.966;7.958;2023-04-02T08:58:19;12.30;99.90
2603;DHT22;1311;47.966;7.958;2023-04-02T09:00:53;12.60;99.90
2603;DHT22;1311;47.966;7.958;2023-04-02T09:03:27;13.20;99.90
2603;DHT22;1311;47.966;7.958;2023-04-02T09:05:56;13.10;99.90
2603;DHT22;1311;47.966;7.958;2023-04-02T09:08:26;13.40;99.90
2603;DHT22;1311;47.966;7.958;2023-04-02T09:10:59;13.40;99.90
2603;DHT22;1311;47.966;7.958;2023-04-02T09:13:30;13.30;99.90
2603;DHT22;1311;47.966;7.958;2023-04-02T09:16:06;13.30;99.90
2603;DHT22;1311;47.966;7.958;2023-04-02T09:18:33;13.70;99.90
2603;DHT22;1311;47.966;7.958;2023-04-02T09:21:21;13.70;99.90
2603;DHT22;1311;47.966;7.958;2023-04-02T09:23:52;13.80;99.90
2603;DHT22;1311;47.966;7.958;2023-04-02T09:26:22;13.60;99.90
2603;DHT22;1311;47.966;7.958;2023-04-02T09:28:50;13.90;99.90
2603;DHT22;1311;47.966;7.958;2023-04-02T09:31:22;14.20;99.90
2603;DHT22;1311;47.966;7.958;2023-04-02T09:33:50;14.20;99.90
2603;DHT22;1311;47.966;7.958;2023-04-02T09:36:31;14.00;99.90
2603;DHT22;1311;47.966;7.958;2023-04-02T09:39:01;14.20;99.90
2603;DHT22;1311;47.966;7.958;2023-04-02T09:41:32;14.30;99.90
2603;DHT22;1311;47.966;7.958;2023-04-02T09:44:17;13.80;99.90
2603;DHT22;1311;47.966;7.958;2023-04-02T09:46:51;14.10;99.90
2603;DHT22;1311;47.966;7.958;2023-04-02T09:49:24;14.70;99.90
2603;DHT22;1311;47.966;7.958;2023-04-02T09:52:19;13.70;99.90
2603;DHT22;1311;47.966;7.958;2023-04-02T09:55:03;13.60;99.90
2603;DHT22;1311;47.966;7.958;2023-04-02T09:57:31;13.40;99.90
2603;DHT22;1311;47.966;7.958;2023-04-02T10:00:09;13.50;99.90
2603;DHT22;1311;47.966;7.958;2023-04-02T10:02:39;13.80;99.90
2603;DHT22;1311;47.966;7.958;2023-04-02T10:05:16;13.50;99.90
2603;DHT22;1311;47.966;7.958;2023-04-02T10:07:46;13.40;99.90
2603;DHT22;1311;47.966;7.958;2023-04-02T10:10:19;13.10;99.90
2603;DHT22;1311;47.966;7.958;2023-04-02T10:12:49;12.90;99.90
2603;DHT22;1311;47.966;7.958;2023-04-02T10:15:21;13.10;99.90
2603;DHT22;1311;47.966;7.958;2023-04-02T10:17:56;13.30;99.90
2603;DHT22;1311;47.966;7.958;2023-04-02T10:20:25;13.70;99.90
2603;DHT22;1311;47.966;7.958;2023-04-02T10:22:53;13.70;99.90
2603;DHT22;1311;47.966;7.958;2023-04-02T10:25:22;13.80;99.90
2603;DHT22;1311;47.966;7.958;2023-04-02T10:27:55;13.80;99.90
2603;DHT22;1311;47.966;7.958;2023-04-02T10:30:24;13.90;99.90
2603;DHT22;1311;47.966;7.958;2023-04-02T10:32:58;13.60;99.90
2603;DHT22;1311;47.966;7.958;2023-04-02T10:35:38;13.80;99.90
2603;DHT22;1311;47.966;7.958;2023-04-02T10:38:25;13.60;99.90
2603;DHT22;1311;47.966;7.958;2023-04-02T10:40:58;13.80;99.90
2603;DHT22;1311;47.966;7.958;2023-04-02T10:43:38;13.90;99.90
2603;DHT22;1311;47.966;7.958;2023-04-02T10:46:16;14.30;99.90
2603;DHT22;1311;47.966;7.958;2023-04-02T10:48:53;14.60;99.90
2603;DHT22;1311;47.966;7.958;2023-04-02T10:51:28;14.80;99.90
2603;DHT22;1311;47.966;7.958;2023-04-02T10:54:02;14.80;99.90
2603;DHT22;1311;47.966;7.958;2023-04-02T10:56:32;14.60;99.90
2603;DHT22;1311;47.966;7.958;2023-04-02T10:59:02;14.60;99.90
2603;DHT22;1311;47.966;7.958;2023-04-02T11:01:31;14.60;99.90
2603;DHT22;1311;47.966;7.958;2023-04-02T11:04:04;14.60;99.90
2603;DHT22;1311;47.966;7.958;2023-04-02T11:06:38;14.80;99.90
2603;DHT22;1311;47.966;7.958;2023-04-02T11:09:14;14.10;99.90
2603;DHT22;1311;47.966;7.958;2023-04-02T11:11:44;14.00;99.90
2603;DHT22;1311;47.966;7.958;2023-04-02T11:14:14;14.50;99.90
2603;DHT22;1311;47.966;7.958;2023-04-02T11:16:42;14.10;99.90
2603;DHT22;1311;47.966;7.958;2023-04-02T11:19:26;13.70;99.90
2603;DHT22;1311;47.966;7.958;2023-04-02T11:21:54;13.70;99.90
2603;DHT22;1311;47.966;7.958;2023-04-02T11:27:17;13.70;99.90
2603;DHT22;1311;47.966;7.958;2023-04-02T11:29:46;13.50;99.90
2603;DHT22;1311;47.966;7.958;2023-04-02T11:32:35;13.50;99.90
2603;DHT22;1311;47.966;7.958;2023-04-02T11:35:36;13.80;99.90
2603;DHT22;1311;47.966;7.958;2023-04-02T11:41:03;13.80;99.90
2603;DHT22;1311;47.966;7.958;2023-04-02T11:43:50;14.00;99.90
2603;DHT22;1311;47.966;7.958;2023-04-02T11:46:38;14.30;99.90
2603;DHT22;1311;47.966;7.958;2023-04-02T11:49:34;14.40;99.90
2603;DHT22;1311;47.966;7.958;2023-04-02T11:52:03;14.40;99.90
2603;DHT22;1311;47.966;7.958;2023-04-02T11:54:35;14.50;99.90
2603;DHT22;1311;47.966;7.958;2023-04-02T11:57:10;14.20;99.90
2603;DHT22;1311;47.966;7.958;2023-04-02T11:59:43;14.40;99.90
2603;DHT22;1311;47.966;7.958;2023-04-02T12:02:19;14.40;99.90
2603;DHT22;1311;47.966;7.958;2023-04-02T12:05:02;14.20;99.90
2603;DHT22;1311;47.966;7.958;2023-04-02T12:08:03;14.20;99.90
2603;DHT22;1311;47.966;7.958;2023-04-02T12:10:33;14.30;99.90
2603;DHT22;1311;47.966;7.958;2023-04-02T12:13:17;14.50;99.90
2603;DHT22;1311;47.966;7.958;2023-04-02T12:15:45;14.40;99.90
2603;DHT22;1311;47.966;7.958;2023-04-02T12:18:14;14.20;99.90
2603;DHT22;1311;47.966;7.958;2023-04-02T12:20:46;14.20;99.90
2603;DHT22;1311;47.966;7.958;2023-04-02T12:23:21;14.20;99.90
2603;DHT22;1311;47.966;7.958;2023-04-02T12:25:55;14.10;99.90
2603;DHT22;1311;47.966;7.958;2023-04-02T12:28:23;14.00;99.90
2603;DHT22;1311;47.966;7.958;2023-04-02T12:31:01;14.00;99.90
2603;DHT22;1311;47.966;7.958;2023-04-02T12:33:30;14.10;99.90
2603;DHT22;1311;47.966;7.958;2023-04-02T12:35:59;14.10;99.90
2603;DHT22;1311;47.966;7.958;2023-04-02T12:38:29;13.80;99.90
2603;DHT22;1311;47.966;7.958;2023-04-02T12:40:58;13.70;99.90
2603;DHT22;1311;47.966;7.958;2023-04-02T12:43:26;13.30;99.90
2603;DHT22;1311;47.966;7.958;2023-04-02T12:45:54;13.00;99.90
2603;DHT22;1311;47.966;7.958;2023-04-02T12:48:22;12.90;99.90
2603;DHT22;1311;47.966;7.958;2023-04-02T12:50:50;12.80;99.90
2603;DHT22;1311;47.966;7.958;2023-04-02T12:53:22;12.50;99.90
2603;DHT22;1311;47.966;7.958;2023-04-02T12:55:51;12.30;99.90
2603;DHT22;1311;47.966;7.958;2023-04-02T12:58:27;12.40;99.90
2603;DHT22;1311;47.966;7.958;2023-04-02T13:01:15;12.10;99.90
2603;DHT22;1311;47.966;7.958;2023-04-02T13:03:57;12.00;99.90
2603;DHT22;1311;47.966;7.958;2023-04-02T13:06:24;12.00;99.90
2603;DHT22;1311;47.966;7.958;2023-04-02T13:08:52;11.90;99.90
2603;DHT22;1311;47.966;7.958;2023-04-02T13:11:21;11.70;99.90
2603;DHT22;1311;47.966;7.958;2023-04-02T13:13:49;11.80;99.90
2603;DHT22;1311;47.966;7.958;2023-04-02T13:16:28;11.80;99.90
2603;DHT22;1311;47.966;7.958;2023-04-02T13:19:20;11.70;99.90
2603;DHT22;1311;47.966;7.958;2023-04-02T13:21:47;11.80;99.90
2603;DHT22;1311;47.966;7.958;2023-04-02T13:24:18;11.80;99.90
2603;DHT22;1311;47.966;7.958;2023-04-02T13:26:47;11.60;99.90
2603;DHT22;1311;47.966;7.958;2023-04-02T13:29:19;11.50;99.90
2603;DHT22;1311;47.966;7.958;2023-04-02T13:31:47;11.50;99.90
2603;DHT22;1311;47.966;7.958;2023-04-02T13:34:14;11.60;99.90
2603;DHT22;1311;47.966;7.958;2023-04-02T13:36:41;11.70;99.90
2603;DHT22;1311;47.966;7.958;2023-04-02T13:39:08;11.70;99.90
2603;DHT22;1311;47.966;7.958;2023-04-02T13:41:39;11.40;99.90
2603;DHT22;1311;47.966;7.958;2023-04-02T13:44:20;11.30;99.90
2603;DHT22;1311;47.966;7.958;2023-04-02T13:46:47;11.40;99.90
2603;DHT22;1311;47.966;7.958;2023-04-02T13:49:14;11.40;99.90
2603;DHT22;1311;47.966;7.958;2023-04-02T13:51:43;11.40;99.90
2603;DHT22;1311;47.966;7.958;2023-04-02T13:54:15;11.30;99.90
2603;DHT22;1311;47.966;7.958;2023-04-02T13:56:43;11.10;99.90
2603;DHT22;1311;47.966;7.958;2023-04-02T13:59:12;11.00;99.90
2603;DHT22;1311;47.966;7.958;2023-04-02T14:01:40;10.70;99.90
2603;DHT22;1311;47.966;7.958;2023-04-02T14:04:08;10.90;99.90
2603;DHT22;1311;47.966;7.958;2023-04-02T14:06:51;11.00;99.90
2603;DHT22;1311;47.966;7.958;2023-04-02T14:09:25;11.00;99.90
2603;DHT22;1311;47.966;7.958;2023-04-02T14:11:59;11.10;99.90
2603;DHT22;1311;47.966;7.958;2023-04-02T14:14:47;11.20;99.90
2603;DHT22;1311;47.966;7.958;2023-04-02T14:17:24;11.30;99.90
2603;DHT22;1311;47.966;7.958;2023-04-02T14:20:02;11.20;99.90
2603;DHT22;1311;47.966;7.958;2023-04-02T14:22:44;11.10;99.90
2603;DHT22;1311;47.966;7.958;2023-04-02T14:25:19;11.20;99.90
2603;DHT22;1311;47.966;7.958;2023-04-02T14:27:55;11.20;99.90
2603;DHT22;1311;47.966;7.958;2023-04-02T14:30:27;11.30;99.90
2603;DHT22;1311;47.966;7.958;2023-04-02T14:33:04;11.60;99.90
2603;DHT22;1311;47.966;7.958;2023-04-02T14:35:36;11.80;99.90
2603;DHT22;1311;47.966;7.958;2023-04-02T14:38:08;11.90;99.90
2603;DHT22;1311;47.966;7.958;2023-04-02T14:40:43;11.90;99.90
2603;DHT22;1311;47.966;7.958;2023-04-02T14:43:16;11.90;99.90
2603;DHT22;1311;47.966;7.958;2023-04-02T14:45:58;12.00;99.90
2603;DHT22;1311;47.966;7.958;2023-04-02T14:48:32;12.00;99.90
2603;DHT22;1311;47.966;7.958;2023-04-02T14:51:04;12.10;99.90
2603;DHT22;1311;47.966;7.958;2023-04-02T14:53:38;12.10;99.90
2603;DHT22;1311;47.966;7.958;2023-04-02T14:56:07;12.10;99.90
2603;DHT22;1311;47.966;7.958;2023-04-02T14:58:38;12.00;99.90
2603;DHT22;1311;47.966;7.958;2023-04-02T15:01:13;11.90;99.90
2603;DHT22;1311;47.966;7.958;2023-04-02T15:03:47;11.90;99.90
2603;DHT22;1311;47.966;7.958;2023-04-02T15:06:18;11.80;99.90
2603;DHT22;1311;47.966;7.958;2023-04-02T15:08:49;11.70;99.90
2603;DHT22;1311;47.966;7.958;2023-04-02T15:11:20;11.60;99.90
2603;DHT22;1311;47.966;7.958;2023-04-02T15:13:52;11.60;99.90
2603;DHT22;1311;47.966;7.958;2023-04-02T15:16:23;11.50;99.90
2603;DHT22;1311;47.966;7.958;2023-04-02T15:18:52;11.40;99.90
2603;DHT22;1311;47.966;7.958;2023-04-02T15:21:39;11.50;99.90
2603;DHT22;1311;47.966;7.958;2023-04-02T15:24:14;11.40;99.90
2603;DHT22;1311;47.966;7.958;2023-04-02T15:26:49;11.60;99.90
2603;DHT22;1311;47.966;7.958;2023-04-02T15:29:25;11.60;99.90
2603;DHT22;1311;47.966;7.958;2023-04-02T15:32:02;11.70;99.90
2603;DHT22;1311;47.966;7.958;2023-04-02T15:34:35;11.80;99.90
2603;DHT22;1311;47.966;7.958;2023-04-02T15:37:12;11.80;99.90
2603;DHT22;1311;47.966;7.958;2023-04-02T15:39:50;11.80;99.90
2603;DHT22;1311;47.966;7.958;2023-04-02T15:42:24;11.80;99.90
2603;DHT22;1311;47.966;7.958;2023-04-02T15:45:11;11.70;99.90
2603;DHT22;1311;47.966;7.958;2023-04-02T15:47:51;11.60;99.90
2603;DHT22;1311;47.966;7.958;2023-04-02T15:50:36;11.60;99.90
2603;DHT22;1311;47.966;7.958;2023-04-02T15:53:12;11.50;99.90
2603;DHT22;1311;47.966;7.958;2023-04-02T15:55:50;11.40;99.90
2603;DHT22;1311;47.966;7.958;2023-04-02T15:58:23;11.30;99.90
2603;DHT22;1311;47.966;7.958;2023-04-02T16:01:02;11.30;99.90
2603;DHT22;1311;47.966;7.958;2023-04-02T16:03:55;11.30;99.90
2603;DHT22;1311;47.966;7.958;2023-04-02T16:06:29;11.20;99.90
2603;DHT22;1311;47.966;7.958;2023-04-02T16:09:16;11.20;99.90
2603;DHT22;1311;47.966;7.958;2023-04-02T16:11:46;11.10;99.90
2603;DHT22;1311;47.966;7.958;2023-04-02T16:14:23;11.00;99.90
2603;DHT22;1311;47.966;7.958;2023-04-02T16:16:52;11.00;99.90
2603;DHT22;1311;47.966;7.958;2023-04-02T16:19:26;11.00;99.90
2603;DHT22;1311;47.966;7.958;2023-04-02T16:22:00;10.80;99.90
2603;DHT22;1311;47.966;7.958;2023-04-02T16:24:28;10.70;99.90
2603;DHT22;1311;47.966;7.958;2023-04-02T16:26:58;10.70;99.90
2603;DHT22;1311;47.966;7.958;2023-04-02T16:29:46;10.60;99.90
2603;DHT22;1311;47.966;7.958;2023-04-02T16:32:37;10.70;99.90
2603;DHT22;1311;47.966;7.958;2023-04-02T16:35:17;10.60;99.90
2603;DHT22;1311;47.966;7.958;2023-04-02T16:37:49;10.60;99.90
2603;DHT22;1311;47.966;7.958;2023-04-02T16:40:28;10.70;99.90
2603;DHT22;1311;47.966;7.958;2023-04-02T16:43:03;10.60;99.90
2603;DHT22;1311;47.966;7.958;2023-04-02T16:45:38;10.60;99.90
2603;DHT22;1311;47.966;7.958;2023-04-02T16:48:13;10.50;99.90
2603;DHT22;1311;47.966;7.958;2023-04-02T16:50:53;10.50;99.90
2603;DHT22;1311;47.966;7.958;2023-04-02T16:53:31;10.40;99.90